logo
Rechercher aéroport 
image banner adimage banner adimage banner ad
image banner ad

LZVELI - Velka Ida

Situé à Košice, Slovakia

ICAO - , IATA -

Données fournies par Airmate  

Information générale

Coordonnées: N48°35'49" E21°9'31"
Élévation : 705 feet MSL.
 
Voir autres Aéroports à Košice

Données opérationnelles

Special qualification required
Heure actuelle UTC:
Heure actuelle locale:
Météo à : LZKZ - Kosice ( 10 km )
METAR: LZKZ 222300Z 06003KT 030V090 9999 BKN022 14/14 Q1011 NOSIG
TAF: TAF LZKZ 221715Z 2218/2318 03004KT 9999 FEW025 SCT045 TEMPO 2218/2220 SHRA SCT020TCU BKN035 TEMPO 2308/2315 12004KT TEMPO 2311/2318 SHRA SCT025TCU BKN040 PROB40 TEMPO 2312/2317 2000 TSRA SCT020CB BKN030
Voir NOTAMs / SUP AIP / TFR affectant cet aéroport [VIEW]
Fréquences de communication: [VIEW]

Pistes:

Identifiant RWYQFULongueur (ft)Largeur (ft)SurfaceLDA (ft)
0112°169049ASPH1690
19192°169049ASPH1690

Coordonnées de l'aéroport

Adresse: Košice Slovakia

Vue satellite de LZVELI